Time;durP1;ratioP1;P1;durP2;ratioP2;P2;SDS_P1;SDS_P2;PMS_P1;PMS_P2;Temp;Humidity;BMP_temperature;BMP_pressure;BME280_temperature;BME280_humidity;BME280_pressure;Samples;Min_cycle;Max_cycle;Signal;HPM_P1;HPM_P2
2022/08/07 00:01:30;;;;;;;21.53;15.40;;;17.10;61.70;;;;;;5061937;28;46594;-68
2022/08/07 00:03:56;;;;;;;21.23;15.47;;;17.20;61.20;;;;;;5062594;28;46315;-67
2022/08/07 00:06:22;;;;;;;25.70;15.77;;;17.30;61.10;;;;;;5063421;28;46370;-67
2022/08/07 00:08:47;;;;;;;18.43;15.90;;;17.30;61.00;;;;;;5063379;28;46393;-68
2022/08/07 00:11:13;;;;;;;19.90;15.33;;;17.30;60.90;;;;;;5063549;28;46315;-68
2022/08/07 00:13:39;;;;;;;20.10;15.67;;;17.40;59.90;;;;;;5063502;28;46586;-67
2022/08/07 00:16:05;;;;;;;23.60;16.67;;;17.40;60.80;;;;;;5061969;28;46368;-68
2022/08/07 00:18:31;;;;;;;26.43;17.33;;;17.40;60.80;;;;;;5062286;28;45704;-67
2022/08/07 00:21:02;;;;;;;19.90;16.57;;;17.30;62.10;;;;;;5063022;28;46357;-68
2022/08/07 00:23:33;;;;;;;23.13;16.47;;;17.50;61.40;;;;;;5059234;28;46409;-67
2022/08/07 00:26:00;;;;;;;21.23;16.27;;;17.20;61.60;;;;;;5057623;28;47033;-68
2022/08/07 00:28:26;;;;;;;27.23;17.53;;;17.10;61.90;;;;;;5064379;28;46513;-67
2022/08/07 00:30:52;;;;;;;22.73;17.40;;;17.10;62.20;;;;;;5060742;28;46448;-68
2022/08/07 00:33:17;;;;;;;22.40;17.40;;;17.00;62.50;;;;;;5061443;28;46522;-68
2022/08/07 00:35:43;;;;;;;23.23;17.63;;;16.90;62.00;;;;;;5061765;28;47320;-68
2022/08/07 00:38:09;;;;;;;27.00;18.50;;;16.80;63.20;;;;;;5061793;28;46477;-67
2022/08/07 00:40:35;;;;;;;25.40;17.87;;;16.80;63.40;;;;;;5063088;28;46393;-68
2022/08/07 00:43:00;;;;;;;21.27;16.90;;;16.80;63.50;;;;;;5063514;28;46324;-67
2022/08/07 00:45:27;;;;;;;27.27;19.90;;;16.70;62.90;;;;;;5062717;28;46359;-67
2022/08/07 00:47:53;;;;;;;28.53;19.47;;;16.60;64.10;;;;;;5063379;28;46363;-67
2022/08/07 00:50:19;;;;;;;27.37;20.07;;;16.60;64.90;;;;;;5060628;28;46509;-68
2022/08/07 00:52:44;;;;;;;25.40;19.20;;;16.10;64.80;;;;;;5061743;28;46420;-68
2022/08/07 00:55:10;;;;;;;30.30;22.00;;;16.40;64.40;;;;;;5062068;28;46421;-68
2022/08/07 00:57:36;;;;;;;28.40;19.97;;;16.40;65.20;;;;;;5063280;28;46409;-68
2022/08/07 01:00:04;;;;;;;28.90;21.23;;;16.50;65.10;;;;;;5061818;28;45839;-68
2022/08/07 01:02:30;;;;;;;34.70;22.53;;;16.50;64.80;;;;;;5062051;28;46351;-68
2022/08/07 01:04:57;;;;;;;30.53;22.57;;;16.50;64.80;;;;;;5060939;28;47170;-68
2022/08/07 01:07:23;;;;;;;33.90;23.47;;;16.50;65.20;;;;;;5061625;28;46357;-68
2022/08/07 01:09:48;;;;;;;34.30;23.33;;;16.50;65.20;;;;;;5060669;28;45884;-68
2022/08/07 01:12:15;;;;;;;33.57;22.90;;;16.50;65.30;;;;;;5061459;28;46396;-68
2022/08/07 01:14:41;;;;;;;37.90;24.30;;;16.50;65.20;;;;;;5061010;28;47568;-68
2022/08/07 01:17:08;;;;;;;35.53;22.23;;;16.60;65.30;;;;;;5060339;28;46389;-68
2022/08/07 01:19:34;;;;;;;32.33;23.53;;;16.60;65.00;;;;;;5061444;28;46465;-68
2022/08/07 01:22:01;;;;;;;35.20;23.50;;;16.60;64.70;;;;;;5061369;28;46501;-67
2022/08/07 01:24:28;;;;;;;40.40;24.93;;;16.70;64.70;;;;;;5060749;28;46720;-68
2022/08/07 01:26:54;;;;;;;36.60;25.00;;;16.60;64.70;;;;;;5060691;28;46322;-68
2022/08/07 01:29:26;;;;;;;39.30;26.40;;;16.60;64.80;;;;;;5060966;28;46472;-68
2022/08/07 01:31:52;;;;;;;40.40;25.90;;;16.50;65.10;;;;;;5061699;28;46429;-67
2022/08/07 01:34:19;;;;;;;41.03;26.77;;;16.50;64.80;;;;;;5061569;28;46417;-67
2022/08/07 01:36:48;;;;;;;42.70;27.30;;;16.40;65.80;;;;;;5060508;28;46472;-68
2022/08/07 01:39:14;;;;;;;58.57;27.87;;;16.40;66.00;;;;;;5061179;28;46464;-68
2022/08/07 01:41:42;;;;;;;48.53;29.60;;;16.30;66.30;;;;;;5062392;28;46384;-68
2022/08/07 01:44:09;;;;;;;43.93;27.70;;;16.20;66.80;;;;;;5058410;28;46707;-68
2022/08/07 01:46:35;;;;;;;49.60;30.03;;;16.20;67.20;;;;;;5062268;28;46391;-67
2022/08/07 01:49:01;;;;;;;62.40;32.70;;;16.20;67.50;;;;;;5062152;28;46433;-67
2022/08/07 01:51:28;;;;;;;52.93;32.67;;;16.10;67.80;;;;;;5061263;28;46589;-68
2022/08/07 01:53:58;;;;;;;58.43;32.93;;;16.10;68.40;;;;;;5062629;28;46342;-67
2022/08/07 01:56:41;;;;;;;56.23;31.83;;;16.00;68.80;;;;;;5060582;28;45802;-68
2022/08/07 01:59:31;;;;;;;53.17;31.53;;;16.00;69.10;;;;;;5061115;28;46502;-68
2022/08/07 02:02:19;;;;;;;59.00;32.23;;;15.90;69.90;;;;;;5060368;28;46636;-68
2022/08/07 02:05:13;;;;;;;56.70;32.87;;;15.90;68.80;;;;;;5061045;28;46754;-67
2022/08/07 02:07:45;;;;;;;53.00;32.37;;;15.90;70.20;;;;;;5058577;28;46451;-68
2022/08/07 02:10:12;;;;;;;53.60;33.13;;;15.90;70.00;;;;;;5060299;28;46460;-68
2022/08/07 02:12:41;;;;;;;56.50;31.57;;;16.00;70.00;;;;;;5060473;28;46346;-68
2022/08/07 02:15:08;;;;;;;55.37;31.40;;;16.00;68.90;;;;;;5059826;28;48119;-68
2022/08/07 02:17:36;;;;;;;55.53;31.40;;;16.00;70.00;;;;;;5059855;28;46370;-68
2022/08/07 02:20:04;;;;;;;50.73;29.70;;;16.00;70.00;;;;;;5059564;28;46339;-68
2022/08/07 02:22:31;;;;;;;53.70;28.60;;;15.90;70.10;;;;;;5059122;28;46003;-68
2022/08/07 02:24:59;;;;;;;45.73;27.87;;;15.90;70.50;;;;;;5058884;28;46514;-67
2022/08/07 02:27:27;;;;;;;48.97;27.60;;;15.90;70.70;;;;;;5060390;28;45984;-68
2022/08/07 02:29:54;;;;;;;50.03;27.80;;;15.90;70.50;;;;;;5055280;28;46504;-68
2022/08/07 02:32:22;;;;;;;44.63;26.20;;;15.90;70.30;;;;;;5061806;28;46552;-68
2022/08/07 02:34:49;;;;;;;47.37;24.80;;;15.90;70.60;;;;;;5060716;28;46320;-68
2022/08/07 02:37:17;;;;;;;45.53;27.20;;;15.80;71.10;;;;;;5059630;28;46311;-68
2022/08/07 02:39:46;;;;;;;49.33;26.30;;;15.80;71.10;;;;;;5056239;28;46405;-68
2022/08/07 02:42:12;;;;;;;36.33;23.30;;;15.80;71.40;;;;;;5059857;28;46386;-68
2022/08/07 02:44:43;;;;;;;40.20;24.10;;;15.90;71.70;;;;;;5059478;28;46630;-68
2022/08/07 02:47:10;;;;;;;42.40;23.00;;;15.70;71.60;;;;;;5048978;28;46428;-68
2022/08/07 02:49:36;;;;;;;46.47;23.37;;;15.70;71.70;;;;;;5058441;28;46410;-68
2022/08/07 02:52:07;;;;;;;37.70;23.70;;;15.70;71.40;;;;;;5060338;28;46319;-68
2022/08/07 02:54:34;;;;;;;42.27;22.13;;;15.70;71.30;;;;;;5059263;28;46436;-67
2022/08/07 02:57:02;;;;;;;38.13;22.17;;;15.70;71.40;;;;;;5060003;28;45735;-68
2022/08/07 02:59:30;;;;;;;43.80;22.47;;;15.70;71.10;;;;;;5061469;28;46381;-68
2022/08/07 03:01:56;;;;;;;36.43;21.47;;;15.70;71.10;;;;;;5060533;28;46569;-68
2022/08/07 03:04:23;;;;;;;38.47;22.10;;;15.80;71.10;;;;;;5059932;28;46386;-68
2022/08/07 03:06:50;;;;;;;33.33;21.23;;;15.70;71.10;;;;;;5058762;28;46432;-68
2022/08/07 03:09:18;;;;;;;38.50;20.43;;;15.70;71.30;;;;;;5060808;28;46466;-68
2022/08/07 03:11:44;;;;;;;31.00;18.97;;;15.70;71.20;;;;;;5060715;28;46423;-68
2022/08/07 03:14:11;;;;;;;33.07;20.13;;;15.70;71.30;;;;;;5060233;28;46650;-68
2022/08/07 03:16:37;;;;;;;34.97;20.13;;;15.70;71.20;;;;;;5059562;28;45892;-68
2022/08/07 03:19:03;;;;;;;30.47;18.97;;;15.70;71.10;;;;;;5060393;28;46485;-68
2022/08/07 03:21:29;;;;;;;32.50;18.30;;;15.70;71.00;;;;;;5060434;28;46340;-68
2022/08/07 03:23:56;;;;;;;30.43;18.23;;;15.70;70.90;;;;;;5059148;28;46452;-68
2022/08/07 03:26:24;;;;;;;29.07;18.07;;;15.70;70.90;;;;;;5058644;28;46559;-68
2022/08/07 03:28:52;;;;;;;26.50;17.30;;;15.70;70.90;;;;;;5059302;28;46399;-68
2022/08/07 03:31:20;;;;;;;27.63;18.27;;;15.70;70.80;;;;;;5063913;28;46568;-69
2022/08/07 03:33:49;;;;;;;25.53;17.27;;;15.80;69.70;;;;;;5059112;28;46565;-68
2022/08/07 03:36:17;;;;;;;26.73;16.63;;;15.80;70.70;;;;;;5061253;28;46440;-68
2022/08/07 03:38:45;;;;;;;26.47;16.00;;;15.80;70.50;;;;;;5060623;28;46650;-68
2022/08/07 03:41:12;;;;;;;25.53;15.20;;;15.90;70.10;;;;;;5063735;28;46812;-68
2022/08/07 03:43:39;;;;;;;20.40;15.10;;;16.00;68.90;;;;;;5063013;28;47164;-68
2022/08/07 03:46:05;;;;;;;33.23;15.27;;;16.00;70.00;;;;;;5063523;28;45835;-68
2022/08/07 03:48:35;;;;;;;23.80;14.10;;;16.10;69.50;;;;;;5063432;28;46437;-68
2022/08/07 03:51:02;;;;;;;21.53;15.00;;;16.20;69.20;;;;;;5061898;28;45842;-68
2022/08/07 03:53:28;;;;;;;21.13;13.43;;;16.20;69.00;;;;;;5063337;28;46706;-68
2022/08/07 03:55:57;;;;;;;24.03;14.70;;;16.20;68.00;;;;;;5063036;28;46334;-68
2022/08/07 03:58:23;;;;;;;19.23;12.60;;;16.20;68.90;;;;;;5062323;28;46381;-68
2022/08/07 04:00:51;;;;;;;25.43;14.70;;;16.20;68.90;;;;;;5062420;28;46171;-68
2022/08/07 04:03:17;;;;;;;20.77;14.00;;;16.20;68.90;;;;;;5061719;28;46847;-68
2022/08/07 04:05:42;;;;;;;25.20;13.17;;;16.10;68.10;;;;;;5063260;28;46354;-68
2022/08/07 04:08:13;;;;;;;21.33;13.70;;;16.10;69.30;;;;;;5065224;28;46453;-68
2022/08/07 04:10:40;;;;;;;20.10;13.60;;;16.20;69.10;;;;;;5069676;28;46418;-68
2022/08/07 04:13:06;;;;;;;25.93;14.93;;;16.20;69.10;;;;;;5064771;28;47214;-68
2022/08/07 04:15:32;;;;;;;19.03;14.23;;;16.20;68.30;;;;;;5062337;28;46343;-68
2022/08/07 04:17:59;;;;;;;19.77;13.70;;;16.20;69.20;;;;;;5060926;28;46371;-67
2022/08/07 04:20:25;;;;;;;25.93;14.47;;;16.20;69.30;;;;;;5060545;28;46519;-68
2022/08/07 04:22:52;;;;;;;23.20;14.80;;;16.20;69.40;;;;;;5062048;28;46460;-68
2022/08/07 04:25:18;;;;;;;20.30;13.83;;;16.10;69.50;;;;;;5062254;28;46722;-67
2022/08/07 04:27:44;;;;;;;20.40;14.63;;;16.20;69.40;;;;;;5062185;28;46563;-67
2022/08/07 04:30:10;;;;;;;24.73;14.20;;;16.20;69.40;;;;;;5060829;28;46482;-68
2022/08/07 04:32:37;;;;;;;19.20;13.47;;;16.20;69.30;;;;;;5063847;28;46619;-68
2022/08/07 04:35:04;;;;;;;20.07;12.67;;;16.20;69.50;;;;;;5061579;28;46345;-67
2022/08/07 04:37:31;;;;;;;18.90;13.83;;;16.20;69.60;;;;;;5061493;28;46612;-67
2022/08/07 04:39:57;;;;;;;17.20;13.10;;;16.20;69.90;;;;;;5062657;28;46361;-67
2022/08/07 04:42:26;;;;;;;26.43;13.40;;;16.10;70.00;;;;;;5062346;28;46428;-68
2022/08/07 04:44:54;;;;;;;16.47;11.80;;;16.20;70.00;;;;;;5062305;28;46379;-68
2022/08/07 04:47:28;;;;;;;19.13;12.20;;;16.20;69.60;;;;;;5060911;28;46704;-68
2022/08/07 04:50:09;;;;;;;16.00;12.33;;;16.60;69.40;;;;;;5062827;28;46398;-68
2022/08/07 04:53:03;;;;;;;16.43;11.90;;;16.30;69.20;;;;;;5061243;28;46478;-67
2022/08/07 04:55:39;;;;;;;21.20;12.50;;;16.30;69.20;;;;;;5046180;28;46748;-68
2022/08/07 04:58:30;;;;;;;17.30;10.53;;;16.30;69.20;;;;;;5061038;28;46368;-68
2022/08/07 05:01:24;;;;;;;16.27;11.30;;;16.40;69.10;;;;;;5060099;28;46515;-67
2022/08/07 05:04:15;;;;;;;16.73;9.93;;;16.40;67.60;;;;;;5059441;28;46653;-68
2022/08/07 05:07:07;;;;;;;13.47;10.70;;;16.40;70.00;;;;;;5061158;28;46333;-67
2022/08/07 05:09:46;;;;;;;13.87;10.50;;;16.40;69.00;;;;;;5061296;28;46365;-68
2022/08/07 05:12:16;;;;;;;15.77;9.00;;;16.30;69.30;;;;;;5062618;28;46405;-68
2022/08/07 05:14:47;;;;;;;17.53;9.67;;;16.30;68.30;;;;;;5061116;28;46660;-68
2022/08/07 05:17:17;;;;;;;10.60;8.90;;;16.40;69.30;;;;;;5061591;28;46343;-68
2022/08/07 05:19:47;;;;;;;12.07;8.67;;;16.30;69.10;;;;;;5060767;28;46393;-68
2022/08/07 05:22:14;;;;;;;14.50;8.30;;;16.30;68.80;;;;;;5062397;28;46378;-67
2022/08/07 05:24:41;;;;;;;13.40;9.00;;;16.30;68.50;;;;;;5061728;28;46197;-68
2022/08/07 05:27:13;;;;;;;10.70;7.83;;;16.30;68.60;;;;;;5060612;28;46492;-68
2022/08/07 05:29:40;;;;;;;9.47;7.57;;;16.20;68.40;;;;;;5062411;28;46691;-68
2022/08/07 05:32:10;;;;;;;11.10;7.93;;;16.30;68.20;;;;;;5062038;28;45840;-68
2022/08/07 05:34:38;;;;;;;16.03;8.60;;;16.30;67.80;;;;;;5061237;28;47304;-67
2022/08/07 05:37:04;;;;;;;10.93;8.20;;;16.30;67.60;;;;;;5055118;28;46513;-67
2022/08/07 05:39:30;;;;;;;8.90;6.80;;;16.30;67.50;;;;;;5059791;28;45868;-71
2022/08/07 05:41:56;;;;;;;9.90;6.50;;;16.40;67.00;;;;;;5061102;28;46422;-72
2022/08/07 05:44:22;;;;;;;9.27;6.77;;;16.50;66.30;;;;;;5058949;28;46212;-72
2022/08/07 05:46:49;;;;;;;9.00;6.33;;;16.60;66.00;;;;;;5058775;28;46519;-72
2022/08/07 05:49:15;;;;;;;8.80;6.23;;;16.60;65.80;;;;;;5055597;28;46052;-72
2022/08/07 05:51:42;;;;;;;8.60;7.03;;;16.80;65.30;;;;;;5060177;28;46798;-69
2022/08/07 05:54:10;;;;;;;7.33;5.90;;;16.90;64.50;;;;;;5058446;28;46377;-69
2022/08/07 05:56:37;;;;;;;9.40;5.47;;;17.10;64.20;;;;;;5059177;28;46461;-69
2022/08/07 05:59:05;;;;;;;8.50;5.63;;;17.20;63.50;;;;;;5058260;28;46596;-70
2022/08/07 06:01:32;;;;;;;8.93;4.83;;;17.40;62.90;;;;;;5058186;28;46431;-70
2022/08/07 06:04:00;;;;;;;6.00;4.30;;;17.50;62.20;;;;;;5061231;28;46358;-70
2022/08/07 06:06:26;;;;;;;7.70;4.83;;;17.60;61.20;;;;;;5060251;28;46472;-70
2022/08/07 06:08:53;;;;;;;7.87;4.83;;;17.70;60.50;;;;;;5061662;28;45835;-70
2022/08/07 06:11:19;;;;;;;6.93;4.13;;;17.60;60.00;;;;;;5060721;28;46527;-70
2022/08/07 06:13:44;;;;;;;5.20;3.97;;;17.90;57.90;;;;;;5061573;28;46195;-70
2022/08/07 06:16:11;;;;;;;6.90;3.90;;;17.90;58.90;;;;;;5061148;28;45771;-70
2022/08/07 06:18:38;;;;;;;6.80;4.00;;;18.00;57.80;;;;;;5060540;28;46343;-69
2022/08/07 06:21:05;;;;;;;4.97;3.33;;;18.10;57.10;;;;;;5060004;28;46643;-70
2022/08/07 06:23:32;;;;;;;4.30;2.97;;;18.20;56.60;;;;;;5060809;28;46428;-69
2022/08/07 06:25:59;;;;;;;5.53;3.20;;;18.40;55.50;;;;;;5059900;28;46353;-70
2022/08/07 06:28:25;;;;;;;4.23;2.80;;;18.40;54.30;;;;;;5059493;28;46408;-70
2022/08/07 06:30:50;;;;;;;3.80;2.60;;;18.60;52.40;;;;;;5060803;28;46412;-68
2022/08/07 06:33:17;;;;;;;3.80;2.80;;;18.70;51.60;;;;;;5063188;28;46440;-70
2022/08/07 06:35:43;;;;;;;4.10;2.20;;;18.70;49.40;;;;;;5060243;28;46450;-69
2022/08/07 06:38:09;;;;;;;5.70;2.67;;;18.80;47.80;;;;;;5059895;28;45815;-69
2022/08/07 06:40:45;;;;;;;9.20;2.50;;;18.80;47.50;;;;;;5061307;28;46635;-70
2022/08/07 06:43:12;;;;;;;8.57;2.50;;;18.80;46.60;;;;;;5067168;27;46991;-70
2022/08/07 06:45:38;;;;;;;3.97;2.30;;;19.20;43.80;;;;;;5058751;28;46387;-70
2022/08/07 06:48:05;;;;;;;3.80;2.30;;;20.20;42.00;;;;;;5060338;28;46426;-70
2022/08/07 06:50:33;;;;;;;3.80;2.47;;;21.10;39.50;;;;;;5060169;28;46619;-70
2022/08/07 06:53:01;;;;;;;10.10;2.20;;;21.40;37.20;;;;;;5059999;28;46405;-70
2022/08/07 06:55:29;;;;;;;4.60;2.03;;;21.60;35.50;;;;;;5061966;28;46440;-70
2022/08/07 06:57:59;;;;;;;3.07;2.10;;;22.00;33.30;;;;;;5062342;28;46375;-70
2022/08/07 07:00:27;;;;;;;4.83;2.00;;;21.10;34.20;;;;;;5059661;28;46512;-70
2022/08/07 07:02:55;;;;;;;9.57;2.40;;;20.80;35.70;;;;;;5059939;28;46448;-69
2022/08/07 07:05:21;;;;;;;4.20;1.93;;;20.90;35.20;;;;;;5058398;28;46005;-69
2022/08/07 07:07:47;;;;;;;3.37;1.87;;;21.20;35.10;;;;;;5059016;28;46316;-69
2022/08/07 07:10:13;;;;;;;4.40;2.20;;;21.30;35.00;;;;;;5060496;28;45815;-70
2022/08/07 07:12:47;;;;;;;4.10;2.50;;;20.70;35.90;;;;;;5058717;28;46359;-69
2022/08/07 07:15:34;;;;;;;4.27;2.30;;;20.50;37.30;;;;;;5058962;28;46388;-70
2022/08/07 07:18:27;;;;;;;4.70;2.10;;;20.00;38.80;;;;;;5058036;28;46635;-69
2022/08/07 07:20:58;;;;;;;5.30;2.47;;;19.60;38.00;;;;;;5057981;28;46302;-69
2022/08/07 07:23:25;;;;;;;6.00;2.37;;;19.50;39.00;;;;;;5059970;28;48285;-69
2022/08/07 07:25:54;;;;;;;4.63;2.43;;;19.30;38.70;;;;;;5058943;28;46425;-69
2022/08/07 07:28:42;;;;;;;4.07;2.00;;;19.50;39.90;;;;;;5059932;28;45854;-69
2022/08/07 07:31:39;;;;;;;7.27;2.20;;;19.70;39.70;;;;;;5056552;28;46405;-70
2022/08/07 07:34:08;;;;;;;3.57;2.30;;;19.90;39.30;;;;;;5058836;28;46447;-69
2022/08/07 07:36:36;;;;;;;3.37;2.27;;;20.00;39.50;;;;;;5059247;28;46350;-69
2022/08/07 07:39:03;;;;;;;3.90;2.30;;;20.10;39.40;;;;;;5059593;28;46401;-69
2022/08/07 07:41:32;;;;;;;5.27;1.90;;;20.10;38.80;;;;;;5057414;28;46710;-69
2022/08/07 07:43:59;;;;;;;4.20;2.57;;;20.10;38.60;;;;;;5057201;28;46013;-69
2022/08/07 07:46:26;;;;;;;4.13;2.37;;;20.10;38.40;;;;;;5058717;28;46311;-69
2022/08/07 07:48:52;;;;;;;3.67;2.30;;;20.10;38.70;;;;;;5057850;28;45870;-69
2022/08/07 07:51:20;;;;;;;5.70;2.33;;;20.00;38.50;;;;;;5059273;28;46381;-69
2022/08/07 07:53:46;;;;;;;6.10;3.10;;;20.00;37.20;;;;;;5058923;28;47975;-69
2022/08/07 07:56:13;;;;;;;6.10;2.80;;;20.00;37.90;;;;;;5059894;28;46343;-70
2022/08/07 07:58:40;;;;;;;4.20;2.67;;;20.00;37.60;;;;;;5057842;28;46694;-70
2022/08/07 08:01:08;;;;;;;8.57;3.10;;;20.20;37.60;;;;;;5059802;28;46434;-69
2022/08/07 08:03:37;;;;;;;6.07;2.73;;;20.50;36.20;;;;;;5058582;28;47134;-72
2022/08/07 08:06:05;;;;;;;9.30;3.43;;;20.50;37.30;;;;;;5058075;28;46380;-70
2022/08/07 08:08:32;;;;;;;13.63;3.70;;;20.70;37.20;;;;;;5054652;28;46416;-69
2022/08/07 08:10:59;;;;;;;7.97;3.23;;;20.70;36.10;;;;;;5058472;28;46474;-70
2022/08/07 08:13:27;;;;;;;10.30;3.40;;;20.70;35.90;;;;;;5057460;28;47076;-70
2022/08/07 08:15:55;;;;;;;6.23;2.80;;;20.50;35.60;;;;;;5056322;28;46366;-70
2022/08/07 08:18:24;;;;;;;8.10;2.80;;;20.40;35.90;;;;;;5055215;28;45922;-72
2022/08/07 08:20:50;;;;;;;5.43;2.70;;;20.50;35.50;;;;;;5060290;28;46592;-70
2022/08/07 08:28:52;;;;;;;3.87;2.37;;;20.80;34.90;;;;;;5059924;28;46441;-70
2022/08/07 08:31:25;;;;;;;9.20;3.07;;;20.90;34.90;;;;;;5059982;28;45939;-70
2022/08/07 08:33:53;;;;;;;5.63;3.07;;;20.90;33.70;;;;;;5060991;28;46441;-69
2022/08/07 08:36:26;;;;;;;4.23;2.47;;;20.90;34.70;;;;;;5056772;28;46528;-70
2022/08/07 08:38:54;;;;;;;4.47;2.70;;;21.00;35.00;;;;;;5060943;28;46545;-70
2022/08/07 08:41:33;;;;;;;3.73;2.33;;;21.00;34.50;;;;;;5059489;28;46406;-71
2022/08/07 08:44:07;;;;;;;5.83;2.53;;;21.00;33.90;;;;;;5055347;27;46459;-69
2022/08/07 08:46:47;;;;;;;5.07;2.97;;;21.00;34.80;;;;;;5055517;28;46533;-70
2022/08/07 08:49:17;;;;;;;6.13;2.90;;;21.30;34.00;;;;;;5056960;28;46751;-70
2022/08/07 08:51:58;;;;;;;9.30;3.00;;;21.40;33.50;;;;;;5059007;28;46485;-70
2022/08/07 08:54:33;;;;;;;9.83;2.90;;;21.70;33.20;;;;;;5059795;28;46421;-69
2022/08/07 08:57:05;;;;;;;4.30;2.50;;;21.50;32.90;;;;;;5059239;28;46440;-69
2022/08/07 08:59:40;;;;;;;6.00;2.73;;;21.60;33.10;;;;;;5060180;28;46636;-70
2022/08/07 09:02:24;;;;;;;5.00;2.50;;;21.60;32.60;;;;;;5061285;28;46430;-70
2022/08/07 09:05:12;;;;;;;5.83;3.07;;;21.60;33.10;;;;;;5057981;28;46600;-69
2022/08/07 09:08:00;;;;;;;4.80;2.70;;;21.40;31.60;;;;;;5060641;28;46627;-69
2022/08/07 09:10:36;;;;;;;4.13;2.37;;;21.40;31.60;;;;;;5061374;28;46371;-70
2022/08/07 09:13:23;;;;;;;5.53;2.67;;;21.40;31.60;;;;;;5059809;28;46673;-70
2022/08/07 09:16:26;;;;;;;4.97;2.60;;;21.30;31.50;;;;;;5059352;28;46473;-70
2022/08/07 09:18:54;;;;;;;4.27;2.50;;;21.50;31.40;;;;;;5058651;28;46436;-70
2022/08/07 09:21:41;;;;;;;7.43;2.83;;;21.70;31.20;;;;;;5060178;28;46412;-71
2022/08/07 09:24:39;;;;;;;3.37;2.43;;;21.90;29.60;;;;;;5058893;28;46497;-69
2022/08/07 09:27:34;;;;;;;3.57;2.60;;;21.90;30.50;;;;;;5014463;28;47295;-70
2022/08/07 09:30:07;;;;;;;5.43;2.53;;;21.80;30.30;;;;;;5058286;28;46368;-69
2022/08/07 09:33:00;;;;;;;4.83;2.80;;;21.80;30.50;;;;;;5058764;28;46470;-70
2022/08/07 09:35:34;;;;;;;4.80;2.80;;;21.90;30.00;;;;;;5057523;28;46458;-69
2022/08/07 09:38:06;;;;;;;4.37;2.73;;;21.80;29.80;;;;;;5059450;28;46453;-70
2022/08/07 09:40:37;;;;;;;4.83;3.20;;;22.00;29.40;;;;;;5061463;28;45827;-72
2022/08/07 09:43:21;;;;;;;4.50;2.70;;;22.30;29.30;;;;;;5059678;28;46241;-71
2022/08/07 09:46:07;;;;;;;4.80;2.60;;;22.40;29.00;;;;;;5060069;28;46445;-71
2022/08/07 09:49:11;;;;;;;6.93;2.43;;;22.60;28.50;;;;;;5062469;28;46437;-71
2022/08/07 09:51:51;;;;;;;6.03;2.03;;;22.80;28.00;;;;;;5060029;28;46413;-71
2022/08/07 09:54:35;;;;;;;5.93;2.23;;;22.70;27.50;;;;;;5058323;28;46447;-69
2022/08/07 09:57:20;;;;;;;5.40;2.17;;;22.70;27.10;;;;;;5058755;28;46674;-71
2022/08/07 10:00:07;;;;;;;4.57;2.40;;;22.70;27.20;;;;;;5052804;28;47138;-72
2022/08/07 10:02:55;;;;;;;4.00;2.60;;;22.90;27.00;;;;;;5061358;28;46401;-72
2022/08/07 10:05:38;;;;;;;3.57;2.33;;;22.80;26.40;;;;;;5058632;28;46499;-72
2022/08/07 10:08:35;;;;;;;4.40;2.40;;;22.70;26.80;;;;;;5056459;28;46450;-70
2022/08/07 10:11:09;;;;;;;4.07;2.13;;;22.80;26.60;;;;;;5057062;28;46517;-70
2022/08/07 10:13:47;;;;;;;3.20;2.10;;;22.60;25.30;;;;;;5060110;28;46456;-70
2022/08/07 10:16:22;;;;;;;3.67;2.23;;;22.60;26.20;;;;;;5058990;28;45900;-71
2022/08/07 10:19:25;;;;;;;5.53;2.53;;;22.60;26.10;;;;;;5057740;28;46528;-70
2022/08/07 10:22:03;;;;;;;4.60;2.20;;;22.80;26.00;;;;;;5059194;28;46510;-71
2022/08/07 10:24:44;;;;;;;4.20;1.93;;;23.00;25.60;;;;;;5059309;28;46011;-70
2022/08/07 10:27:28;;;;;;;4.70;2.30;;;23.00;25.30;;;;;;5058884;28;46810;-70
2022/08/07 10:30:03;;;;;;;4.73;2.33;;;22.90;24.80;;;;;;5048774;28;46483;-70
2022/08/07 10:33:07;;;;;;;5.07;2.40;;;23.30;24.80;;;;;;5057468;28;47243;-70
2022/08/07 10:35:51;;;;;;;4.97;2.67;;;23.40;24.80;;;;;;5050322;28;46430;-70
2022/08/07 10:38:29;;;;;;;3.80;2.00;;;23.40;23.70;;;;;;5058870;28;46433;-72
2022/08/07 10:41:00;;;;;;;6.70;2.50;;;23.60;23.60;;;;;;5053619;28;46625;-70
2022/08/07 10:43:33;;;;;;;3.87;2.20;;;23.80;23.60;;;;;;5057561;28;47036;-70
2022/08/07 10:46:03;;;;;;;3.97;2.17;;;23.80;23.10;;;;;;5058561;28;46612;-72
2022/08/07 10:48:50;;;;;;;5.10;2.47;;;24.10;23.40;;;;;;5058841;28;46499;-70
2022/08/07 10:51:45;;;;;;;4.57;2.20;;;24.20;22.70;;;;;;5058662;28;46433;-70
2022/08/07 10:54:40;;;;;;;4.33;1.77;;;24.00;22.60;;;;;;5057620;28;46387;-69
2022/08/07 10:57:25;;;;;;;3.30;2.07;;;24.30;22.30;;;;;;5058244;28;46414;-71
2022/08/07 11:00:08;;;;;;;3.73;2.27;;;23.90;22.30;;;;;;5060577;28;46784;-72
2022/08/07 11:03:02;;;;;;;5.63;2.27;;;23.90;21.70;;;;;;5057563;28;46484;-69
2022/08/07 11:05:33;;;;;;;4.07;2.00;;;24.00;22.00;;;;;;5057929;28;46395;-70
2022/08/07 11:08:30;;;;;;;4.67;1.90;;;24.00;21.80;;;;;;5057751;28;46505;-69
2022/08/07 11:11:14;;;;;;;4.40;2.40;;;24.20;21.80;;;;;;5057966;28;46433;-70
2022/08/07 11:13:47;;;;;;;4.40;2.00;;;24.40;20.90;;;;;;5059393;28;46449;-71
2022/08/07 11:16:30;;;;;;;10.60;2.10;;;24.40;21.80;;;;;;5056309;28;47053;-71
2022/08/07 11:19:05;;;;;;;9.27;2.20;;;24.40;21.20;;;;;;5058195;28;46477;-70
2022/08/07 11:21:43;;;;;;;4.63;1.70;;;24.40;20.80;;;;;;5057239;28;46524;-68
2022/08/07 11:24:24;;;;;;;3.47;2.30;;;24.20;20.80;;;;;;5059099;28;46399;-69
2022/08/07 11:27:10;;;;;;;4.13;2.40;;;24.10;20.80;;;;;;5058172;28;47233;-70
2022/08/07 11:29:42;;;;;;;7.13;2.00;;;24.00;20.90;;;;;;5057942;28;46676;-70
2022/08/07 11:32:16;;;;;;;5.40;2.00;;;23.90;21.00;;;;;;5058704;28;46469;-70
2022/08/07 11:34:49;;;;;;;6.67;2.27;;;23.70;21.20;;;;;;5055747;28;46439;-70
2022/08/07 11:37:45;;;;;;;4.53;2.40;;;23.70;21.30;;;;;;5059176;28;46859;-70
2022/08/07 11:40:31;;;;;;;8.27;2.10;;;23.70;21.50;;;;;;5056549;28;46405;-71
2022/08/07 11:43:16;;;;;;;3.50;2.00;;;24.00;21.20;;;;;;5057565;28;46444;-71
2022/08/07 11:45:53;;;;;;;4.17;1.87;;;23.70;21.30;;;;;;5057823;28;46417;-72
2022/08/07 11:48:56;;;;;;;6.53;1.97;;;23.60;21.30;;;;;;5055183;28;46390;-70
2022/08/07 11:51:42;;;;;;;8.53;2.20;;;23.50;21.20;;;;;;5056900;28;46611;-67
2022/08/07 11:54:25;;;;;;;3.73;2.03;;;23.40;21.10;;;;;;5057842;28;46394;-67
2022/08/07 11:57:25;;;;;;;3.40;2.30;;;23.40;21.10;;;;;;5060945;28;46606;-69
2022/08/07 12:00:04;;;;;;;8.17;1.97;;;23.50;21.20;;;;;;5060927;28;47340;-69
2022/08/07 12:02:50;;;;;;;5.07;1.50;;;23.40;21.10;;;;;;5060614;28;46501;-68
2022/08/07 12:05:27;;;;;;;4.20;2.20;;;23.70;21.00;;;;;;5060008;28;46379;-69
2022/08/07 12:08:06;;;;;;;3.30;1.90;;;23.70;20.80;;;;;;5059353;28;46628;-69
2022/08/07 12:10:39;;;;;;;9.80;2.30;;;23.90;20.70;;;;;;5060279;28;46511;-68
2022/08/07 12:13:17;;;;;;;4.50;1.83;;;23.80;20.60;;;;;;5062128;28;45806;-68
2022/08/07 12:16:15;;;;;;;4.10;1.83;;;23.80;20.40;;;;;;5061663;28;46250;-68
2022/08/07 12:19:16;;;;;;;2.90;1.80;;;23.80;20.60;;;;;;5041187;28;45755;-69
2022/08/07 12:21:48;;;;;;;3.73;1.97;;;23.90;20.30;;;;;;5061201;28;46678;-68
2022/08/07 12:24:19;;;;;;;4.97;2.13;;;23.80;20.10;;;;;;5060245;28;46425;-68
2022/08/07 12:26:51;;;;;;;4.73;2.23;;;23.80;20.30;;;;;;5059951;28;46440;-68
2022/08/07 12:29:50;;;;;;;5.17;2.00;;;23.90;20.40;;;;;;5059626;28;46515;-69
2022/08/07 12:32:39;;;;;;;3.80;2.07;;;23.80;19.70;;;;;;5058005;28;48684;-70
2022/08/07 12:35:09;;;;;;;3.60;2.10;;;23.70;20.00;;;;;;5061608;28;46413;-69
2022/08/07 12:37:39;;;;;;;8.30;2.13;;;23.70;20.00;;;;;;5063619;28;46496;-70
2022/08/07 12:40:06;;;;;;;3.40;1.90;;;23.80;20.10;;;;;;5061916;28;46459;-69
2022/08/07 12:42:33;;;;;;;5.03;1.77;;;23.80;19.70;;;;;;5062986;28;47124;-69
2022/08/07 12:45:11;;;;;;;4.00;1.70;;;23.90;19.60;;;;;;5061469;28;46757;-69
2022/08/07 12:48:02;;;;;;;5.67;1.93;;;24.00;19.50;;;;;;5059714;28;46470;-73
2022/08/07 12:50:40;;;;;;;5.43;1.90;;;24.10;19.10;;;;;;5062582;28;46488;-70
2022/08/07 12:53:34;;;;;;;4.20;2.03;;;24.00;18.90;;;;;;5060343;28;47253;-70
2022/08/07 12:56:09;;;;;;;5.20;2.17;;;23.80;18.10;;;;;;5059836;28;46817;-69
2022/08/07 12:58:38;;;;;;;3.40;1.90;;;23.80;18.30;;;;;;5062407;28;46726;-70
2022/08/07 13:01:27;;;;;;;4.00;1.80;;;23.80;18.40;;;;;;5060696;28;45961;-70
2022/08/07 13:04:05;;;;;;;5.13;1.70;;;24.00;17.10;;;;;;5058969;28;46382;-70
2022/08/07 13:06:40;;;;;;;3.83;1.93;;;24.00;17.90;;;;;;5060605;28;46715;-70
2022/08/07 13:09:21;;;;;;;5.07;2.73;;;24.20;18.10;;;;;;5060774;28;46410;-70
2022/08/07 13:12:05;;;;;;;3.00;1.63;;;24.20;18.00;;;;;;5061207;28;46421;-70
2022/08/07 13:15:01;;;;;;;3.37;1.60;;;24.20;17.90;;;;;;5060261;28;46528;-70